Time;durP1;ratioP1;P1;durP2;ratioP2;P2;SDS_P1;SDS_P2;PMS_P1;PMS_P2;Temp;Humidity;BMP_temperature;BMP_pressure;BME280_temperature;BME280_humidity;BME280_pressure;Samples;Min_cycle;Max_cycle;Signal;HPM_P1;HPM_P2
2022/10/05 00:01:32;;;;;;;30.37;25.15;;;21.70;58.00;;;;;;4795930;58;21488;-29
2022/10/05 00:06:33;;;;;;;30.92;24.30;;;21.60;57.90;;;;;;4795402;55;21537;-31
2022/10/05 00:11:35;;;;;;;32.40;25.08;;;21.70;58.10;;;;;;4794556;58;21040;-33
2022/10/05 00:16:36;;;;;;;31.37;24.52;;;21.60;58.00;;;;;;4839445;54;21044;-35
2022/10/05 00:21:37;;;;;;;30.35;24.12;;;21.60;57.90;;;;;;4812619;54;21466;-35
2022/10/05 00:26:38;;;;;;;30.62;23.45;;;21.60;57.90;;;;;;4842236;54;21007;-35
2022/10/05 00:31:40;;;;;;;30.23;23.67;;;21.60;57.90;;;;;;4794236;58;21516;-33
2022/10/05 00:36:41;;;;;;;30.77;23.90;;;21.60;57.90;;;;;;4840397;54;21408;-36
2022/10/05 00:42:23;;;;;;;30.12;23.80;;;21.60;57.90;;;;;;4795411;58;21047;-29
2022/10/05 00:48:07;;;;;;;30.52;23.73;;;21.60;57.80;;;;;;4798675;54;20996;-30
2022/10/05 00:53:41;;;;;;;30.02;23.52;;;21.60;58.30;;;;;;4797892;54;21039;-30
2022/10/05 00:59:18;;;;;;;28.08;22.75;;;21.60;57.80;;;;;;4795528;58;21533;-29
2022/10/05 01:07:14;;;;;;;29.02;22.87;;;21.60;57.80;;;;;;4865065;54;20984;-32
2022/10/05 01:14:29;;;;;;;25.67;21.80;;;21.60;58.00;;;;;;4821807;54;21067;-35
2022/10/05 01:20:09;;;;;;;27.05;22.08;;;21.60;57.80;;;;;;4818908;54;21067;-33
2022/10/05 01:26:59;;;;;;;27.83;22.05;;;21.60;57.80;;;;;;4803529;54;20971;-28
2022/10/05 01:32:25;;;;;;;25.25;20.85;;;21.60;57.80;;;;;;4803393;54;21135;-34
2022/10/05 01:37:47;;;;;;;24.12;19.85;;;21.60;57.70;;;;;;4813988;54;21036;-27
2022/10/05 01:44:46;;;;;;;24.67;20.58;;;21.60;57.80;;;;;;4794829;58;21139;-33
2022/10/05 01:50:06;;;;;;;25.65;21.80;;;21.60;57.80;;;;;;4832241;54;21000;-26
2022/10/05 01:56:42;;;;;;;25.83;20.08;;;21.60;57.70;;;;;;4814638;54;21111;-29
2022/10/05 02:02:17;;;;;;;22.52;19.00;;;21.60;57.80;;;;;;4806965;54;21072;-27
2022/10/05 02:07:28;;;;;;;26.20;20.12;;;21.60;57.70;;;;;;4837719;54;21087;-29
2022/10/05 02:12:35;;;;;;;25.37;19.92;;;21.60;57.70;;;;;;4834955;54;21032;-31
2022/10/05 02:17:49;;;;;;;24.00;18.33;;;21.60;57.80;;;;;;4813386;54;21086;-27
2022/10/05 02:22:54;;;;;;;24.15;19.23;;;21.50;57.70;;;;;;4816137;54;21019;-28
2022/10/05 02:28:26;;;;;;;24.45;19.62;;;21.50;57.60;;;;;;4836896;54;20987;-34
2022/10/05 02:33:30;;;;;;;21.05;17.98;;;21.50;57.60;;;;;;4795501;58;21027;-29
2022/10/05 02:41:34;;;;;;;23.45;18.55;;;21.50;57.60;;;;;;4838158;54;22031;-35
2022/10/05 02:47:01;;;;;;;23.25;18.87;;;21.50;57.60;;;;;;4862265;54;21123;-27
2022/10/05 02:52:32;;;;;;;22.27;17.77;;;21.50;57.60;;;;;;4795757;58;21477;-33
2022/10/05 02:58:07;;;;;;;23.15;18.25;;;21.50;57.60;;;;;;4795634;58;21099;-32
2022/10/05 03:04:52;;;;;;;21.20;17.73;;;21.50;57.60;;;;;;4802197;54;21110;-31
2022/10/05 03:10:11;;;;;;;21.80;17.87;;;21.50;57.60;;;;;;4812801;54;21059;-33
2022/10/05 03:23:34;;;;;;;19.52;16.52;;;21.50;57.50;;;;;;4837496;54;21147;-30
2022/10/05 03:30:18;;;;;;;20.80;17.30;;;21.50;57.60;;;;;;4810246;54;21051;-26
2022/10/05 03:38:58;;;;;;;20.37;16.60;;;21.50;57.50;;;;;;4795342;54;21028;-34
2022/10/05 03:44:18;;;;;;;19.77;16.23;;;21.50;57.50;;;;;;4835707;54;21040;-35
2022/10/05 03:49:51;;;;;;;19.12;15.50;;;21.50;57.30;;;;;;4820081;54;21004;-33
2022/10/05 03:55:01;;;;;;;20.37;16.40;;;21.50;57.30;;;;;;4808803;54;21048;-32
2022/10/05 04:00:06;;;;;;;19.50;15.80;;;21.50;57.10;;;;;;4795923;58;21044;-31
2022/10/05 04:05:27;;;;;;;18.40;15.25;;;21.50;57.30;;;;;;4821551;54;21118;-35
2022/10/05 04:10:40;;;;;;;18.80;15.07;;;21.50;57.10;;;;;;4804243;54;21072;-34
2022/10/05 04:15:59;;;;;;;19.15;15.05;;;21.50;57.10;;;;;;4811238;54;21091;-32
2022/10/05 04:21:24;;;;;;;18.42;14.80;;;21.50;57.10;;;;;;4795514;58;20980;-28
2022/10/05 04:26:55;;;;;;;19.20;15.30;;;21.50;57.10;;;;;;4820844;54;21115;-34
2022/10/05 04:33:17;;;;;;;20.75;15.57;;;21.50;57.10;;;;;;4794278;58;21310;-33
2022/10/05 04:41:56;;;;;;;17.73;14.20;;;21.40;57.10;;;;;;4796166;58;20996;-28
2022/10/05 04:49:42;;;;;;;18.52;14.30;;;21.40;57.00;;;;;;4826686;54;21513;-33
2022/10/05 04:59:23;;;;;;;17.83;14.38;;;21.40;56.90;;;;;;4842119;54;21028;-29
2022/10/05 05:05:16;;;;;;;17.60;14.93;;;21.40;57.00;;;;;;4798177;54;20999;-31
2022/10/05 05:10:45;;;;;;;17.17;14.35;;;21.40;56.90;;;;;;4855581;54;21077;-27
2022/10/05 05:17:45;;;;;;;17.17;14.55;;;21.40;57.00;;;;;;4797800;54;21071;-29
2022/10/05 05:23:38;;;;;;;17.98;14.45;;;21.40;57.10;;;;;;4811780;54;21024;-33
2022/10/05 05:35:50;;;;;;;17.40;14.38;;;21.40;56.90;;;;;;4804153;54;21067;-37
2022/10/05 05:44:13;;;;;;;18.67;14.40;;;21.40;57.00;;;;;;4797382;54;21039;-29
2022/10/05 05:49:50;;;;;;;19.90;14.15;;;21.40;56.90;;;;;;4805520;54;21063;-34
2022/10/05 05:55:41;;;;;;;19.80;14.70;;;21.40;56.90;;;;;;4795627;58;20984;-30
2022/10/05 06:00:57;;;;;;;19.33;15.20;;;21.40;56.90;;;;;;4821673;54;21128;-32
2022/10/05 06:06:08;;;;;;;16.75;14.45;;;21.40;56.90;;;;;;4822856;54;20984;-31
2022/10/05 06:11:26;;;;;;;20.67;15.73;;;21.40;56.80;;;;;;4824424;54;21123;-29
2022/10/05 06:16:44;;;;;;;18.75;14.75;;;21.40;56.80;;;;;;4798377;54;21040;-28
2022/10/05 06:21:59;;;;;;;20.17;16.00;;;21.40;56.70;;;;;;4797250;54;21560;-27
2022/10/05 06:29:00;;;;;;;20.52;15.55;;;21.40;56.90;;;;;;4795410;58;21023;-31
2022/10/05 06:34:26;;;;;;;21.12;16.05;;;21.40;56.80;;;;;;4842110;54;21059;-26
2022/10/05 06:43:13;;;;;;;22.60;17.55;;;21.40;56.60;;;;;;4796129;54;21000;-34
2022/10/05 06:51:40;;;;;;;22.40;16.73;;;21.40;56.70;;;;;;4795006;58;21032;-34
2022/10/05 06:58:52;;;;;;;25.17;20.15;;;21.40;56.70;;;;;;4795966;58;21060;-31
2022/10/05 07:04:26;;;;;;;26.12;22.17;;;21.40;56.50;;;;;;4817010;54;21067;-30
2022/10/05 07:13:12;;;;;;;33.30;24.23;;;21.50;56.20;;;;;;4843352;54;21075;-30
2022/10/05 07:18:47;;;;;;;88.95;56.20;;;21.50;55.30;;;;;;4803679;54;21063;-26
2022/10/05 07:24:10;;;;;;;77.20;53.38;;;21.30;49.20;;;;;;4813900;54;21107;-29
2022/10/05 07:29:49;;;;;;;88.35;56.20;;;21.20;49.00;;;;;;4842239;54;21004;-33
2022/10/05 07:42:27;;;;;;;83.22;53.78;;;21.20;48.90;;;;;;4794906;54;21063;-30
2022/10/05 07:47:42;;;;;;;75.60;48.50;;;21.20;49.00;;;;;;4815701;54;21521;-30
2022/10/05 07:53:00;;;;;;;83.37;56.28;;;21.20;49.20;;;;;;4796827;54;21083;-29
2022/10/05 07:58:50;;;;;;;85.18;59.33;;;21.20;49.50;;;;;;4810641;54;21501;-31
2022/10/05 08:04:33;;;;;;;85.90;58.58;;;21.20;49.40;;;;;;4798538;54;21024;-34
2022/10/05 08:16:43;;;;;;;93.55;63.25;;;21.20;49.70;;;;;;4822159;54;20988;-30
2022/10/05 08:22:11;;;;;;;98.28;66.43;;;21.20;49.80;;;;;;4798005;54;21071;-31
2022/10/05 08:27:32;;;;;;;97.35;67.70;;;21.20;50.20;;;;;;4836726;54;21067;-28
2022/10/05 08:33:19;;;;;;;102.50;73.53;;;21.20;50.20;;;;;;4815837;54;21096;-30
2022/10/05 08:38:30;;;;;;;115.25;79.57;;;21.30;50.60;;;;;;4830276;54;21493;-29
2022/10/05 08:44:04;;;;;;;110.37;74.30;;;21.30;50.50;;;;;;4794421;58;21168;-34
2022/10/05 08:52:38;;;;;;;115.05;78.60;;;21.40;50.90;;;;;;4807031;54;21067;-36
2022/10/05 08:58:07;;;;;;;119.93;76.40;;;21.40;50.60;;;;;;4828421;54;20983;-29
2022/10/05 09:03:44;;;;;;;107.43;68.82;;;21.40;50.80;;;;;;4836560;54;21055;-29
2022/10/05 09:12:36;;;;;;;110.85;73.12;;;21.40;50.60;;;;;;4823023;54;21597;-34
2022/10/05 09:18:09;;;;;;;104.40;67.03;;;21.40;50.90;;;;;;4795611;54;21605;-34
2022/10/05 09:25:53;;;;;;;105.40;65.68;;;21.50;51.80;;;;;;4816384;54;21514;-32
2022/10/05 09:31:32;;;;;;;95.53;66.32;;;21.50;51.60;;;;;;4802934;54;21517;-33
2022/10/05 09:41:38;;;;;;;97.28;65.30;;;21.50;51.70;;;;;;4793592;58;21712;-28
2022/10/05 09:46:51;;;;;;;92.82;64.47;;;21.60;51.70;;;;;;4795172;58;21091;-31
2022/10/05 09:52:24;;;;;;;90.78;61.08;;;21.60;50.80;;;;;;4818365;54;21012;-29
2022/10/05 09:57:52;;;;;;;88.03;58.08;;;21.60;50.40;;;;;;4806736;54;21538;-32
2022/10/05 10:05:04;;;;;;;83.80;56.45;;;21.50;50.40;;;;;;4828209;54;21051;-31
2022/10/05 10:12:16;;;;;;;84.25;58.10;;;21.50;49.70;;;;;;4813842;54;21533;-32
2022/10/05 10:18:04;;;;;;;82.37;56.55;;;21.50;49.20;;;;;;4867495;54;21672;-32
2022/10/05 10:27:06;;;;;;;81.68;57.45;;;21.50;49.00;;;;;;4819901;54;22390;-34
2022/10/05 10:32:42;;;;;;;94.60;63.03;;;21.50;49.00;;;;;;4807885;54;21517;-40
2022/10/05 10:40:48;;;;;;;97.95;68.80;;;21.60;48.50;;;;;;4795417;58;21581;-31
2022/10/05 10:46:44;;;;;;;95.78;70.20;;;21.60;48.30;;;;;;4795413;58;21003;-34
2022/10/05 10:53:37;;;;;;;89.97;63.35;;;21.60;48.40;;;;;;4824320;54;21085;-27
2022/10/05 11:00:16;;;;;;;87.78;61.45;;;21.70;48.40;;;;;;4797299;54;21003;-31
2022/10/05 11:06:55;;;;;;;77.62;57.13;;;21.70;48.10;;;;;;4823402;54;21466;-26
2022/10/05 11:15:33;;;;;;;73.32;51.85;;;21.70;48.00;;;;;;4821358;54;21150;-29
2022/10/05 11:21:21;;;;;;;81.65;59.33;;;21.70;47.80;;;;;;4797701;54;21015;-32
2022/10/05 11:27:33;;;;;;;90.80;66.37;;;21.70;47.80;;;;;;4812446;54;20991;-31
2022/10/05 11:36:42;;;;;;;93.95;70.43;;;21.80;47.70;;;;;;4810675;54;21120;-33
2022/10/05 11:44:51;;;;;;;92.70;67.90;;;21.80;48.20;;;;;;4805170;54;21047;-30
2022/10/05 11:51:21;;;;;;;90.85;67.00;;;21.70;48.50;;;;;;4797336;54;20999;-27
2022/10/05 11:57:57;;;;;;;88.53;63.60;;;21.80;49.30;;;;;;4793128;54;21090;-39
2022/10/05 12:10:13;;;;;;;85.82;65.03;;;21.80;49.30;;;;;;4794776;54;20968;-28
2022/10/05 12:16:06;;;;;;;86.15;62.83;;;21.80;49.60;;;;;;4818457;54;21633;-27
2022/10/05 12:23:06;;;;;;;86.15;63.63;;;21.80;49.70;;;;;;4808420;54;21034;-34
2022/10/05 12:28:20;;;;;;;80.93;61.20;;;21.80;49.80;;;;;;4799295;54;21032;-28
2022/10/05 12:33:32;;;;;;;81.57;60.55;;;21.90;49.90;;;;;;4799318;54;21386;-27
2022/10/05 12:38:49;;;;;;;83.72;58.90;;;21.80;49.90;;;;;;4812403;54;21024;-29
2022/10/05 12:47:35;;;;;;;76.37;56.25;;;21.90;50.00;;;;;;4827344;54;21518;-33
2022/10/05 12:57:52;;;;;;;70.32;53.33;;;21.90;50.10;;;;;;4809883;54;21020;-28
2022/10/05 13:03:07;;;;;;;71.18;52.00;;;21.90;50.20;;;;;;4807267;54;21007;-28
2022/10/05 13:08:31;;;;;;;64.78;49.95;;;21.90;50.20;;;;;;4810216;54;21024;-31
2022/10/05 13:13:46;;;;;;;67.45;49.33;;;21.90;50.30;;;;;;4824701;54;21110;-27
2022/10/05 13:19:17;;;;;;;67.18;48.45;;;21.90;50.30;;;;;;4848306;54;21142;-32
2022/10/05 13:24:27;;;;;;;66.47;47.95;;;21.90;50.40;;;;;;4813785;54;21548;-29
2022/10/05 13:29:35;;;;;;;62.15;45.17;;;21.90;49.70;;;;;;4836708;54;21485;-27
2022/10/05 13:34:43;;;;;;;62.08;44.83;;;21.90;49.30;;;;;;4805750;54;21023;-29
2022/10/05 13:42:31;;;;;;;62.45;43.10;;;21.90;49.50;;;;;;4829503;54;21609;-30
2022/10/05 13:49:30;;;;;;;54.05;40.10;;;21.90;49.60;;;;;;4813516;54;20992;-32
2022/10/05 13:56:07;;;;;;;52.20;39.58;;;22.00;49.80;;;;;;4800399;54;21024;-28
2022/10/05 14:01:15;;;;;;;55.88;39.13;;;22.00;49.80;;;;;;4804806;54;21066;-28
2022/10/05 14:06:28;;;;;;;51.17;39.25;;;21.90;49.90;;;;;;4821464;54;21075;-27
2022/10/05 14:11:33;;;;;;;56.47;39.42;;;22.00;50.10;;;;;;4795162;58;21571;-31
2022/10/05 14:16:50;;;;;;;56.20;41.15;;;22.00;50.20;;;;;;4804993;54;21497;-29
2022/10/05 14:22:01;;;;;;;58.45;43.13;;;22.00;51.10;;;;;;4809124;54;21068;-30
2022/10/05 14:27:27;;;;;;;54.78;40.25;;;22.00;50.60;;;;;;4816982;54;21498;-27
2022/10/05 14:32:43;;;;;;;52.50;39.25;;;21.90;50.70;;;;;;4805016;54;20992;-30
2022/10/05 14:38:01;;;;;;;50.40;38.72;;;21.90;50.90;;;;;;4797043;54;21485;-30
2022/10/05 14:43:19;;;;;;;51.47;38.80;;;21.80;51.00;;;;;;4828507;54;21083;-32
2022/10/05 14:48:20;;;;;;;54.35;38.88;;;21.80;51.10;;;;;;4831533;54;21534;-30
2022/10/05 14:53:23;;;;;;;49.58;37.58;;;21.80;51.30;;;;;;4795835;55;21075;-31
2022/10/05 15:01:57;;;;;;;50.35;38.15;;;21.80;51.40;;;;;;4796568;54;21596;-31
2022/10/05 15:07:29;;;;;;;53.35;38.00;;;21.80;51.50;;;;;;4840987;54;22194;-28
2022/10/05 15:12:48;;;;;;;51.47;38.47;;;21.70;51.60;;;;;;4814027;54;21075;-32
2022/10/05 15:17:57;;;;;;;51.72;39.08;;;21.70;51.60;;;;;;4804114;54;21458;-32
2022/10/05 15:25:12;;;;;;;50.05;38.22;;;21.70;51.70;;;;;;4859625;54;21000;-31
2022/10/05 15:30:17;;;;;;;50.70;38.33;;;21.70;51.80;;;;;;4840283;54;21134;-32
2022/10/05 15:37:15;;;;;;;47.72;37.50;;;21.70;51.90;;;;;;4845240;54;21632;-36
2022/10/05 15:42:21;;;;;;;49.88;37.03;;;21.70;52.00;;;;;;4857801;54;21084;-32
2022/10/05 15:47:47;;;;;;;47.03;36.10;;;21.70;52.60;;;;;;4814906;54;21057;-36
2022/10/05 15:53:20;;;;;;;44.20;35.73;;;21.70;52.10;;;;;;4797874;54;21661;-31
2022/10/05 15:58:55;;;;;;;48.20;37.42;;;21.70;52.20;;;;;;4799381;54;21090;-28
2022/10/05 16:11:35;;;;;;;44.45;35.05;;;21.70;52.30;;;;;;4794964;54;22333;-28
2022/10/05 16:24:55;;;;;;;47.53;35.83;;;21.70;52.40;;;;;;4826667;54;21553;-31
2022/10/05 16:30:10;;;;;;;44.97;35.13;;;21.70;53.20;;;;;;4806000;54;21867;-33
2022/10/05 16:36:58;;;;;;;42.17;34.25;;;21.70;52.60;;;;;;4846877;54;20996;-27
2022/10/05 16:42:20;;;;;;;48.45;36.08;;;21.70;52.70;;;;;;4821729;54;21047;-28
2022/10/05 16:47:55;;;;;;;43.35;34.22;;;21.60;52.70;;;;;;4847833;54;21095;-31
2022/10/05 16:53:24;;;;;;;43.17;34.53;;;21.70;52.90;;;;;;4810823;54;21529;-28
2022/10/05 16:58:49;;;;;;;43.15;34.92;;;21.60;52.90;;;;;;4838285;54;21051;-32
2022/10/05 17:04:30;;;;;;;42.42;33.67;;;21.60;52.90;;;;;;4856850;54;21139;-33
2022/10/05 17:11:11;;;;;;;46.53;34.88;;;21.60;53.00;;;;;;4814844;54;21501;-27
2022/10/05 17:19:31;;;;;;;46.10;35.42;;;21.60;53.10;;;;;;4810634;54;21095;-30
2022/10/05 17:25:37;;;;;;;44.70;34.50;;;21.60;53.20;;;;;;4795546;56;21501;-30
2022/10/05 17:30:52;;;;;;;;;;;21.60;53.30;;;;;;4811981;54;21068;-37
2022/10/05 17:36:47;;;;;;;44.10;35.05;;;21.60;53.40;;;;;;4820900;54;20281;-27
2022/10/05 17:41:48;;;;;;;47.17;34.95;;;21.60;53.40;;;;;;4840788;54;21028;-32
2022/10/05 17:47:02;;;;;;;44.28;35.28;;;21.60;53.40;;;;;;4799194;54;21093;-31
2022/10/05 17:59:04;;;;;;;46.85;35.97;;;21.60;53.50;;;;;;4833911;54;20999;-28
2022/10/05 18:04:25;;;;;;;43.60;34.97;;;21.60;53.70;;;;;;4800510;54;21521;-29
2022/10/05 18:09:32;;;;;;;44.90;34.53;;;21.60;53.70;;;;;;4795043;58;21600;-27
2022/10/05 18:14:57;;;;;;;44.17;34.47;;;21.60;53.70;;;;;;4836776;54;21024;-35
2022/10/05 18:26:53;;;;;;;43.53;34.83;;;21.60;53.80;;;;;;4812045;54;21099;-29
2022/10/05 18:32:01;;;;;;;44.08;34.60;;;21.60;53.90;;;;;;4794933;54;21060;-31
2022/10/05 18:40:35;;;;;;;41.85;33.15;;;21.60;53.90;;;;;;4806346;54;21470;-33
2022/10/05 18:46:10;;;;;;;44.03;33.95;;;21.60;53.90;;;;;;4821495;54;20992;-28
2022/10/05 18:51:41;;;;;;;42.05;34.03;;;21.60;54.00;;;;;;4829457;54;21104;-27
2022/10/05 18:56:48;;;;;;;44.00;35.33;;;21.60;54.10;;;;;;4803984;54;21137;-28
2022/10/05 19:03:07;;;;;;;39.72;33.10;;;21.60;54.10;;;;;;4795519;58;21027;-27
2022/10/05 19:08:29;;;;;;;43.72;34.75;;;21.60;54.20;;;;;;4813398;54;21325;-32
2022/10/05 19:17:38;;;;;;;44.08;35.40;;;21.60;54.20;;;;;;4824835;54;21031;-28
2022/10/05 19:27:43;;;;;;;43.58;34.65;;;21.60;54.20;;;;;;4840870;54;21035;-35
2022/10/05 19:39:34;;;;;;;;;;;21.60;54.30;;;;;;4852324;54;21554;-28
2022/10/05 19:45:22;;;;;;;49.20;37.00;;;21.60;54.30;;;;;;4795547;58;20735;-34
2022/10/05 19:50:29;;;;;;;44.47;34.85;;;21.60;54.40;;;;;;4815017;54;21064;-29
2022/10/05 19:55:33;;;;;;;;;;;21.60;54.40;;;;;;4799534;58;21090;-28
2022/10/05 20:00:34;;;;;;;46.40;37.05;;;21.60;54.40;;;;;;4816736;54;20309;-31
2022/10/05 20:05:35;;;;;;;43.42;34.45;;;21.50;54.40;;;;;;4799855;54;21843;-26
2022/10/05 20:10:36;;;;;;;43.53;34.33;;;21.50;54.40;;;;;;4798035;54;21095;-32
2022/10/05 20:20:56;;;;;;;43.22;34.25;;;21.50;54.40;;;;;;4822996;54;21513;-31
2022/10/05 20:31:18;;;;;;;45.85;36.00;;;21.50;54.40;;;;;;4795107;54;21031;-27
2022/10/05 20:36:19;;;;;;;47.95;36.03;;;21.50;54.50;;;;;;4797149;54;21485;-28
2022/10/05 20:41:20;;;;;;;45.38;35.88;;;21.50;54.50;;;;;;4813298;54;21032;-28
2022/10/05 20:46:21;;;;;;;47.20;34.13;;;21.50;54.40;;;;;;4817553;54;21075;-31
2022/10/05 20:51:25;;;;;;;49.13;36.97;;;21.50;54.40;;;;;;4815572;54;21493;-28
2022/10/05 20:56:26;;;;;;;44.33;34.40;;;21.50;54.40;;;;;;4846838;54;21139;-27
2022/10/05 21:01:27;;;;;;;45.70;34.72;;;21.50;54.50;;;;;;4795765;54;22352;-27
2022/10/05 21:06:28;;;;;;;47.55;35.42;;;21.50;54.40;;;;;;4795635;58;21982;-28
2022/10/05 21:11:29;;;;;;;46.60;34.60;;;21.50;54.50;;;;;;4810176;54;21952;-30
2022/10/05 21:16:30;;;;;;;47.47;35.60;;;21.50;54.50;;;;;;4837402;54;21095;-28
2022/10/05 21:21:31;;;;;;;46.67;36.20;;;21.50;54.40;;;;;;4815070;54;21000;-34
2022/10/05 21:26:32;;;;;;;46.58;34.35;;;21.50;54.40;;;;;;4807581;54;21329;-33
2022/10/05 21:31:33;;;;;;;48.55;34.42;;;21.50;54.40;;;;;;4850789;54;21139;-28
2022/10/05 21:36:34;;;;;;;47.75;34.45;;;21.50;54.40;;;;;;4818790;54;21108;-27
2022/10/05 21:41:35;;;;;;;47.17;35.70;;;21.50;54.50;;;;;;4799162;54;21486;-36
2022/10/05 21:46:37;;;;;;;48.15;35.38;;;21.50;54.50;;;;;;4794963;58;21011;-32
2022/10/05 21:51:39;;;;;;;46.22;34.55;;;21.50;54.50;;;;;;4825982;54;21154;-32
2022/10/05 21:56:44;;;;;;;44.85;33.45;;;21.50;54.50;;;;;;4808190;54;21004;-29
2022/10/05 22:01:45;;;;;;;46.33;34.88;;;21.50;54.60;;;;;;4806153;54;21035;-34
2022/10/05 22:06:46;;;;;;;46.08;34.25;;;21.50;54.50;;;;;;4833672;54;21059;-32
2022/10/05 22:11:48;;;;;;;43.90;33.47;;;21.50;54.50;;;;;;4823353;54;21544;-27
2022/10/05 22:16:49;;;;;;;43.63;33.22;;;21.50;54.50;;;;;;4811887;54;21556;-34
2022/10/05 22:21:49;;;;;;;45.58;33.90;;;21.50;54.50;;;;;;4871287;54;20996;-36
2022/10/05 22:26:50;;;;;;;46.78;34.13;;;21.50;54.50;;;;;;4801541;54;21019;-26
2022/10/05 22:31:54;;;;;;;44.22;33.28;;;21.50;54.50;;;;;;4802391;54;21036;-26
2022/10/05 22:36:55;;;;;;;43.45;33.65;;;21.50;54.50;;;;;;4881766;54;20992;-35
2022/10/05 22:41:57;;;;;;;45.53;34.08;;;21.50;54.50;;;;;;4839661;54;21056;-31
2022/10/05 22:46:58;;;;;;;45.05;34.33;;;21.50;54.50;;;;;;4815953;54;21003;-31
2022/10/05 22:51:59;;;;;;;40.15;32.10;;;21.50;54.50;;;;;;4800919;54;21027;-32
2022/10/05 22:56:59;;;;;;;44.60;33.67;;;21.50;54.50;;;;;;4795324;58;20996;-33
2022/10/05 23:02:00;;;;;;;45.92;33.72;;;21.50;55.10;;;;;;4795294;58;21544;-30
2022/10/05 23:07:01;;;;;;;41.25;31.52;;;21.50;54.50;;;;;;4797259;54;21000;-29
2022/10/05 23:12:02;;;;;;;43.22;32.75;;;21.50;54.60;;;;;;4822409;54;21517;-27
2022/10/05 23:17:03;;;;;;;40.40;30.80;;;21.50;54.60;;;;;;4840905;54;20984;-29
2022/10/05 23:22:04;;;;;;;39.78;30.48;;;21.40;54.50;;;;;;4806607;54;21027;-29
2022/10/05 23:27:05;;;;;;;43.10;32.15;;;21.50;54.50;;;;;;4836548;54;21019;-33
2022/10/05 23:32:06;;;;;;;41.67;32.75;;;21.50;54.50;;;;;;4798775;54;21525;-29
2022/10/05 23:37:07;;;;;;;39.63;31.35;;;21.40;54.50;;;;;;4799291;54;21438;-37
2022/10/05 23:42:09;;;;;;;41.30;31.10;;;21.50;54.50;;;;;;4798996;54;21052;-32
2022/10/05 23:47:10;;;;;;;39.40;31.20;;;21.40;54.50;;;;;;4795472;58;21465;-30
2022/10/05 23:52:11;;;;;;;41.65;31.05;;;21.40;54.40;;;;;;4797432;54;21044;-32
2022/10/05 23:57:16;;;;;;;38.72;29.48;;;21.40;54.40;;;;;;4804910;54;21047;-35
